Time;durP1;ratioP1;P1;durP2;ratioP2;P2;SDS_P1;SDS_P2;PMS_P1;PMS_P2;Temp;Humidity;BMP_temperature;BMP_pressure;BME280_temperature;BME280_humidity;BME280_pressure;Samples;Min_cycle;Max_cycle;Signal;HPM_P1;HPM_P2
2021/04/25 00:00:16;;;;;;;8.40;5.75;;;;;;;3.70;58.65;100744.23;1748868;81;21032;-53
2021/04/25 00:02:43;;;;;;;7.85;5.53;;;;;;;3.70;58.61;100736.93;1748692;82;21196;-53
2021/04/25 00:05:13;;;;;;;9.50;6.17;;;;;;;3.72;58.52;100741.60;1748784;82;21045;-53
2021/04/25 00:07:41;;;;;;;9.93;5.95;;;;;;;3.74;58.53;100743.55;1748774;82;20992;-53
2021/04/25 00:10:10;;;;;;;11.48;6.28;;;;;;;3.74;58.50;100741.38;1748757;82;21048;-53
2021/04/25 00:12:41;;;;;;;8.38;5.80;;;;;;;3.74;58.44;100738.13;1748740;81;21020;-53
2021/04/25 00:15:12;;;;;;;6.83;5.45;;;;;;;3.76;58.32;100739.29;1748877;82;21157;-53
2021/04/25 00:17:39;;;;;;;8.03;5.50;;;;;;;3.74;58.33;100729.97;1748711;82;20986;-53
2021/04/25 00:20:09;;;;;;;9.58;5.75;;;;;;;3.79;58.01;100734.23;1748752;81;21016;-53
2021/04/25 00:22:37;;;;;;;7.28;5.42;;;;;;;3.82;57.78;100728.06;1748800;82;22204;-53
2021/04/25 00:25:06;;;;;;;8.50;5.55;;;;;;;3.85;57.67;100727.63;1748952;82;21009;-54
2021/04/25 00:27:33;;;;;;;7.85;5.72;;;;;;;3.87;57.59;100730.94;1748727;80;22383;-53
2021/04/25 00:30:01;;;;;;;10.30;6.00;;;;;;;3.85;57.73;100722.19;1748761;82;21479;-53
2021/04/25 00:32:28;;;;;;;10.70;6.72;;;;;;;3.83;57.66;100723.77;1748773;81;21638;-54
2021/04/25 00:34:56;;;;;;;9.80;5.97;;;;;;;3.82;57.72;100725.35;1748525;81;22008;-53
2021/04/25 00:37:23;;;;;;;8.60;5.97;;;;;;;3.80;57.57;100721.47;1749018;82;21048;-53
2021/04/25 00:39:51;;;;;;;10.75;6.47;;;;;;;3.80;57.66;100722.31;1748888;82;21212;-53
2021/04/25 00:42:18;;;;;;;8.95;6.00;;;;;;;3.77;57.74;100718.69;1748872;82;21072;-53
2021/04/25 00:44:45;;;;;;;9.70;6.30;;;;;;;3.73;57.91;100720.17;1748942;82;21036;-53
2021/04/25 00:47:16;;;;;;;9.10;5.80;;;;;;;3.70;58.09;100719.27;1748577;81;21012;-53
2021/04/25 00:49:44;;;;;;;7.65;5.58;;;;;;;3.66;58.13;100715.33;1748828;81;21024;-53
2021/04/25 00:52:11;;;;;;;8.43;5.45;;;;;;;3.62;58.34;100710.84;1748908;82;21284;-53
2021/04/25 00:54:40;;;;;;;10.32;7.15;;;;;;;3.59;58.55;100710.47;1748853;81;21008;-53
2021/04/25 00:57:07;;;;;;;10.65;6.55;;;;;;;3.55;58.50;100711.95;1749056;82;21041;-53
2021/04/25 00:59:36;;;;;;;11.88;6.87;;;;;;;3.55;58.45;100703.27;1748970;82;21017;-53
2021/04/25 01:02:03;;;;;;;13.98;7.35;;;;;;;3.55;58.51;100702.45;1748991;82;21040;-53
2021/04/25 01:04:31;;;;;;;11.28;6.50;;;;;;;3.54;58.54;100696.70;1748773;82;21370;-53
2021/04/25 01:06:58;;;;;;;10.70;6.30;;;;;;;3.52;58.71;100690.13;1748886;81;21028;-53
2021/04/25 01:09:26;;;;;;;11.93;6.95;;;;;;;3.49;58.94;100688.37;1748988;82;21027;-53
2021/04/25 01:11:53;;;;;;;11.45;7.00;;;;;;;3.44;58.87;100691.24;1748818;82;21016;-54
2021/04/25 01:14:21;;;;;;;10.45;6.62;;;;;;;3.41;58.92;100691.66;1749048;81;21008;-53
2021/04/25 01:16:49;;;;;;;11.00;6.83;;;;;;;3.40;58.95;100683.73;1748876;82;21200;-53
2021/04/25 01:19:17;;;;;;;11.73;7.20;;;;;;;3.37;59.10;100682.31;1748813;82;21039;-53
2021/04/25 01:21:44;;;;;;;9.00;6.40;;;;;;;3.35;59.18;100691.19;1748847;82;20985;-54
2021/04/25 01:24:12;;;;;;;11.50;6.70;;;;;;;3.31;59.26;100680.45;1748857;82;21077;-55
2021/04/25 01:26:39;;;;;;;12.68;6.62;;;;;;;3.30;59.23;100681.50;1748696;80;21012;-54
2021/04/25 01:29:07;;;;;;;13.53;7.05;;;;;;;3.28;59.29;100677.64;1748922;82;21213;-54
2021/04/25 01:31:35;;;;;;;18.15;7.67;;;;;;;3.27;59.33;100673.80;1748740;81;21000;-54
2021/04/25 01:34:03;;;;;;;13.38;7.55;;;;;;;3.26;59.27;100678.94;1748875;81;21028;-54
2021/04/25 01:36:31;;;;;;;13.70;7.05;;;;;;;3.26;59.25;100677.58;1748907;82;21059;-54
2021/04/25 01:38:59;;;;;;;12.75;7.50;;;;;;;3.24;59.33;100668.80;1749110;82;20981;-54
2021/04/25 01:41:26;;;;;;;13.43;7.25;;;;;;;3.25;59.31;100673.20;1749000;82;21214;-54
2021/04/25 01:43:54;;;;;;;12.98;6.65;;;;;;;3.26;59.46;100669.44;1748893;81;21056;-54
2021/04/25 01:46:22;;;;;;;13.20;7.47;;;;;;;3.24;59.37;100665.59;1719743;82;21492;-54
2021/04/25 01:48:49;;;;;;;13.13;7.80;;;;;;;3.22;59.43;100660.88;1748828;82;21046;-54
2021/04/25 01:51:17;;;;;;;12.98;7.40;;;;;;;3.20;59.59;100659.44;1748909;82;21079;-54
2021/04/25 01:53:44;;;;;;;13.85;7.50;;;;;;;3.17;59.69;100663.41;1748716;82;21363;-54
2021/04/25 01:56:13;;;;;;;15.50;7.97;;;;;;;3.18;59.60;100657.48;1748910;82;21056;-54
2021/04/25 01:58:42;;;;;;;13.08;7.67;;;;;;;3.18;59.71;100653.41;1748819;82;21645;-54
2021/04/25 02:01:09;;;;;;;15.63;7.62;;;;;;;3.17;59.70;100662.59;1748845;81;21024;-54
2021/04/25 02:03:38;;;;;;;13.83;8.08;;;;;;;3.15;59.77;100651.13;1748882;81;21049;-54
2021/04/25 02:06:06;;;;;;;12.25;7.42;;;;;;;3.13;59.93;100654.57;1748646;82;21197;-54
2021/04/25 02:08:33;;;;;;;15.13;9.25;;;;;;;3.11;59.95;100654.29;1748779;82;21048;-54
2021/04/25 02:11:02;;;;;;;17.48;8.10;;;;;;;3.11;60.07;100657.50;1748857;82;21020;-54
2021/04/25 02:13:31;;;;;;;15.05;7.42;;;;;;;3.10;60.20;100655.33;1748679;82;21069;-54
2021/04/25 02:15:58;;;;;;;11.63;7.35;;;;;;;3.11;60.15;100652.08;1748900;81;21045;-54
2021/04/25 02:18:26;;;;;;;11.40;7.00;;;;;;;3.11;60.02;100652.93;1748777;82;21203;-54
2021/04/25 02:20:53;;;;;;;12.93;7.53;;;;;;;3.13;59.99;100646.43;1748837;82;21044;-54
2021/04/25 02:23:21;;;;;;;10.82;7.25;;;;;;;3.16;59.93;100654.13;1748555;82;21045;-54
2021/04/25 02:25:50;;;;;;;11.00;7.40;;;;;;;3.19;59.87;100646.94;1748708;81;21681;-54
2021/04/25 02:28:17;;;;;;;17.90;7.90;;;;;;;3.22;59.90;100646.49;1748877;80;20949;-54
2021/04/25 02:30:45;;;;;;;15.45;7.70;;;;;;;3.23;59.77;100646.27;1748817;81;21542;-54
2021/04/25 02:33:13;;;;;;;10.88;7.75;;;;;;;3.25;60.03;100654.19;1748781;82;20996;-54
2021/04/25 02:35:41;;;;;;;15.58;7.47;;;;;;;3.25;60.21;100651.47;1756349;81;21032;-54
2021/04/25 02:38:08;;;;;;;14.18;7.37;;;;;;;3.25;59.88;100641.44;1757872;81;21052;-54
2021/04/25 02:40:36;;;;;;;9.50;6.85;;;;;;;3.32;59.66;100646.83;1757846;81;21028;-54
2021/04/25 02:43:04;;;;;;;11.18;7.40;;;;;;;3.39;59.40;100641.36;1758012;81;21348;-54
2021/04/25 02:45:32;;;;;;;10.10;7.85;;;;;;;3.46;59.20;100638.89;1757946;81;21057;-54
2021/04/25 02:48:04;;;;;;;12.50;8.03;;;;;;;3.53;58.89;100645.63;1758008;81;20973;-54
2021/04/25 02:50:35;;;;;;;17.70;8.00;;;;;;;3.59;58.95;100629.80;1757750;81;21260;-54
2021/04/25 02:53:03;;;;;;;12.50;7.47;;;;;;;3.64;58.79;100635.92;1757939;81;21044;-54
2021/04/25 02:55:32;;;;;;;13.88;8.10;;;;;;;3.70;58.57;100637.77;1757864;81;21012;-54
2021/04/25 02:58:00;;;;;;;15.08;7.78;;;;;;;3.73;58.43;100625.09;1757954;81;21032;-54
2021/04/25 03:00:29;;;;;;;12.25;7.67;;;;;;;3.76;58.37;100628.71;1757847;81;21048;-54
2021/04/25 03:02:57;;;;;;;11.70;7.60;;;;;;;3.79;58.26;100626.08;1757961;81;21060;-54
2021/04/25 03:05:26;;;;;;;11.18;6.90;;;;;;;3.83;58.21;100633.24;1757971;81;21016;-54
2021/04/25 03:07:53;;;;;;;11.70;8.33;;;;;;;3.85;58.14;100640.13;1757971;81;21208;-55
2021/04/25 03:10:21;;;;;;;10.08;7.47;;;;;;;3.86;58.24;100640.95;1757827;81;21048;-54
2021/04/25 03:12:51;;;;;;;13.32;7.30;;;;;;;3.89;58.08;100642.70;1757841;81;21028;-54
2021/04/25 03:15:19;;;;;;;11.08;7.40;;;;;;;3.91;58.11;100646.02;1757916;81;21048;-54
2021/04/25 03:17:48;;;;;;;14.25;7.22;;;;;;;3.94;58.03;100643.38;1757982;81;20953;-54
2021/04/25 03:20:18;;;;;;;9.90;6.78;;;;;;;3.95;58.06;100651.31;1758021;81;21381;-54
2021/04/25 03:22:45;;;;;;;12.98;7.58;;;;;;;3.97;57.75;100642.92;1757840;81;21051;-54
2021/04/25 03:25:14;;;;;;;11.70;7.83;;;;;;;4.02;57.76;100634.13;1758012;81;20992;-54
2021/04/25 03:27:42;;;;;;;12.25;7.03;;;;;;;4.03;57.67;100635.25;1757763;80;20976;-54
2021/04/25 03:30:11;;;;;;;11.22;7.03;;;;;;;4.05;57.57;100642.64;1757907;81;21036;-54
2021/04/25 03:32:39;;;;;;;13.75;7.50;;;;;;;4.08;57.46;100635.94;1758019;81;21384;-54
2021/04/25 03:35:08;;;;;;;13.05;8.25;;;;;;;4.05;57.49;100626.34;1757834;81;21012;-54
2021/04/25 03:37:37;;;;;;;16.95;8.95;;;;;;;4.04;57.63;100636.89;1757839;81;21614;-54
2021/04/25 03:40:06;;;;;;;14.35;7.67;;;;;;;4.00;57.70;100622.09;1757891;81;21000;-54
2021/04/25 03:42:34;;;;;;;11.12;7.17;;;;;;;3.97;57.75;100633.41;1757907;81;20992;-54
2021/04/25 03:45:05;;;;;;;12.78;8.13;;;;;;;3.95;57.83;100635.54;1757600;81;21203;-54
2021/04/25 03:47:32;;;;;;;15.80;7.33;;;;;;;3.95;58.00;100632.82;1757798;81;21059;-54
2021/04/25 03:49:59;;;;;;;10.90;7.12;;;;;;;3.93;58.13;100633.55;1757971;81;20972;-54
2021/04/25 03:52:26;;;;;;;12.47;7.55;;;;;;;3.92;58.21;100633.28;1757781;81;21012;-55
2021/04/25 03:54:54;;;;;;;10.15;7.03;;;;;;;3.96;58.19;100634.49;1757907;81;21048;-54
2021/04/25 03:57:22;;;;;;;17.60;8.23;;;;;;;3.98;58.16;100625.57;1757851;81;21384;-54
2021/04/25 03:59:49;;;;;;;11.43;6.87;;;;;;;4.02;58.13;100625.43;1757827;81;21020;-54
2021/04/25 04:02:16;;;;;;;14.73;7.08;;;;;;;4.07;57.99;100624.75;1757702;81;21009;-54
2021/04/25 04:04:44;;;;;;;11.30;7.08;;;;;;;4.17;57.83;100636.47;1757781;81;21040;-54
2021/04/25 04:07:11;;;;;;;15.98;7.45;;;;;;;4.25;57.62;100629.38;1758016;81;21028;-54
2021/04/25 04:09:39;;;;;;;10.48;6.62;;;;;;;4.31;57.65;100627.10;1757923;81;21741;-54
2021/04/25 04:12:08;;;;;;;11.55;7.45;;;;;;;4.38;57.31;100627.03;1757882;81;20968;-54
2021/04/25 04:14:36;;;;;;;11.25;6.80;;;;;;;4.44;57.15;100622.85;1758023;81;21072;-55
2021/04/25 04:17:03;;;;;;;14.00;7.60;;;;;;;4.50;57.29;100616.52;1757955;81;21000;-54
2021/04/25 04:19:31;;;;;;;12.75;7.58;;;;;;;4.56;56.90;100618.00;1758109;81;20965;-54
2021/04/25 04:21:59;;;;;;;11.57;7.53;;;;;;;4.62;56.72;100613.03;1758004;81;21310;-54
2021/04/25 04:24:26;;;;;;;12.00;7.58;;;;;;;4.68;56.45;100621.09;1758158;81;20985;-54
2021/04/25 04:26:54;;;;;;;12.75;7.03;;;;;;;4.76;56.32;100616.38;1758012;80;21072;-54
2021/04/25 04:29:22;;;;;;;15.40;7.12;;;;;;;4.83;56.19;100616.61;1757948;81;21036;-54
2021/04/25 04:31:50;;;;;;;10.80;7.25;;;;;;;4.91;55.84;100618.71;1758053;81;21036;-54
2021/04/25 04:34:18;;;;;;;13.43;6.97;;;;;;;4.98;55.67;100628.97;1757892;81;21367;-54
2021/04/25 04:36:47;;;;;;;12.40;7.00;;;;;;;5.04;55.29;100619.87;1757929;81;21028;-54
2021/04/25 04:39:14;;;;;;;14.83;7.78;;;;;;;5.09;55.02;100609.13;1758098;81;21025;-54
2021/04/25 04:41:42;;;;;;;11.38;7.37;;;;;;;5.14;54.99;100611.96;1757884;81;21024;-54
2021/04/25 04:44:09;;;;;;;13.50;9.05;;;;;;;5.19;54.95;100624.36;1758086;81;21032;-54
2021/04/25 04:46:37;;;;;;;13.75;9.45;;;;;;;5.25;54.65;100618.52;1757922;81;21382;-53
2021/04/25 04:49:04;;;;;;;19.25;7.87;;;;;;;5.31;54.55;100626.28;1757979;81;21028;-52
2021/04/25 04:51:33;;;;;;;14.87;8.73;;;;;;;5.37;54.49;100621.25;1758100;81;20984;-53
2021/04/25 04:54:01;;;;;;;12.55;8.15;;;;;;;5.44;54.39;100628.78;1757930;81;21024;-53
2021/04/25 04:56:29;;;;;;;16.82;8.98;;;;;;;5.50;54.11;100625.14;1758057;81;20977;-53
2021/04/25 04:58:56;;;;;;;16.62;8.58;;;;;;;5.56;53.94;100633.42;1758073;81;21140;-52
2021/04/25 05:01:26;;;;;;;15.18;8.75;;;;;;;5.59;53.90;100633.80;1757868;81;21068;-53
2021/04/25 05:03:54;;;;;;;12.78;8.03;;;;;;;5.63;53.81;100639.08;1757978;81;21067;-53
2021/04/25 05:06:24;;;;;;;14.73;8.33;;;;;;;5.64;53.91;100627.64;1757967;81;21653;-52
2021/04/25 05:08:52;;;;;;;12.45;7.85;;;;;;;5.67;54.14;100631.25;1758004;81;21036;-52
2021/04/25 05:11:19;;;;;;;14.18;8.68;;;;;;;5.74;54.01;100633.33;1758001;81;21289;-53
2021/04/25 05:13:47;;;;;;;17.98;8.40;;;;;;;5.81;54.00;100644.13;1757958;81;20986;-53
2021/04/25 05:16:15;;;;;;;13.45;8.65;;;;;;;5.87;53.94;100649.47;1758041;81;21013;-53
2021/04/25 05:18:43;;;;;;;12.43;7.47;;;;;;;5.89;54.01;100631.52;1757986;81;21040;-53
2021/04/25 05:21:10;;;;;;;14.83;8.55;;;;;;;5.94;54.19;100641.70;1757964;81;21024;-53
2021/04/25 05:23:38;;;;;;;18.77;8.40;;;;;;;5.98;53.96;100639.64;1758035;81;21367;-53
2021/04/25 05:26:05;;;;;;;14.03;8.18;;;;;;;5.95;54.32;100631.91;1757957;80;21051;-53
2021/04/25 05:28:32;;;;;;;12.23;8.08;;;;;;;5.98;54.69;100632.83;1758014;81;21044;-53
2021/04/25 05:31:01;;;;;;;15.88;8.23;;;;;;;6.04;54.38;100629.69;1757968;81;21079;-53
2021/04/25 05:33:29;;;;;;;13.58;8.85;;;;;;;6.09;54.51;100624.36;1758040;81;21040;-53
2021/04/25 05:35:57;;;;;;;15.68;8.45;;;;;;;6.16;54.41;100637.33;1753069;81;21223;-53
2021/04/25 05:38:24;;;;;;;13.88;8.15;;;;;;;6.21;54.40;100637.43;1749005;82;21024;-53
2021/04/25 05:40:51;;;;;;;15.40;8.75;;;;;;;6.28;54.46;100637.86;1748879;82;21334;-53
2021/04/25 05:43:19;;;;;;;16.00;8.35;;;;;;;6.37;54.33;100630.95;1748787;82;21039;-53
2021/04/25 05:45:46;;;;;;;11.68;8.73;;;;;;;6.47;53.99;100636.61;1748823;82;21060;-53
2021/04/25 05:48:14;;;;;;;13.53;7.87;;;;;;;6.49;53.89;100634.48;1748814;81;21379;-53
2021/04/25 05:50:41;;;;;;;10.30;7.60;;;;;;;6.56;53.92;100628.36;1748767;81;20957;-53
2021/04/25 05:53:09;;;;;;;14.75;8.43;;;;;;;6.66;53.72;100632.34;1748852;82;21102;-53
2021/04/25 05:55:37;;;;;;;12.93;8.63;;;;;;;6.74;53.99;100631.97;1748790;82;21019;-53
2021/04/25 05:58:04;;;;;;;13.45;8.03;;;;;;;6.81;53.66;100631.30;1748861;82;21024;-53
2021/04/25 06:00:33;;;;;;;16.75;8.08;;;;;;;6.87;53.47;100628.13;1748935;82;23612;-53
2021/04/25 06:03:04;;;;;;;14.03;8.35;;;;;;;6.97;53.98;100631.59;1748933;82;21054;-53
2021/04/25 06:05:31;;;;;;;19.17;8.00;;;;;;;7.10;53.39;100625.81;1748866;82;21689;-53
2021/04/25 06:07:58;;;;;;;16.40;8.10;;;;;;;7.20;53.04;100619.72;1748863;82;21017;-54
2021/04/25 06:10:28;;;;;;;10.78;6.95;;;;;;;7.32;52.88;100619.67;1748699;82;21032;-54
2021/04/25 06:12:56;;;;;;;12.05;7.40;;;;;;;7.38;52.35;100622.22;1748991;82;22278;-54
2021/04/25 06:15:26;;;;;;;13.05;8.93;;;;;;;7.44;52.05;100621.77;1748830;82;21025;-54
2021/04/25 06:17:53;;;;;;;13.08;7.25;;;;;;;7.48;52.09;100626.22;1748812;81;20996;-53
2021/04/25 06:20:21;;;;;;;11.15;8.03;;;;;;;7.54;51.87;100624.66;1748914;82;21017;-53
2021/04/25 06:22:49;;;;;;;11.57;7.95;;;;;;;7.61;52.05;100625.88;1748839;81;21072;-54
2021/04/25 06:25:16;;;;;;;12.33;7.20;;;;;;;7.69;51.59;100634.22;1748897;81;22145;-54
2021/04/25 06:27:43;;;;;;;13.55;7.62;;;;;;;7.68;51.47;100625.17;1748680;80;21064;-53
2021/04/25 06:30:14;;;;;;;14.53;7.70;;;;;;;7.68;51.46;100630.64;1748622;82;21045;-53
2021/04/25 06:32:43;;;;;;;11.22;7.17;;;;;;;7.71;51.47;100631.50;1748862;82;21832;-53
2021/04/25 06:35:14;;;;;;;12.15;7.50;;;;;;;7.74;51.33;100617.88;1748956;81;21021;-52
2021/04/25 06:37:42;;;;;;;11.30;7.35;;;;;;;7.80;51.34;100620.97;1765416;81;21588;-53
2021/04/25 06:40:12;;;;;;;13.53;8.13;;;;;;;7.89;51.47;100624.14;1765331;81;21008;-54
2021/04/25 06:42:40;;;;;;;13.35;7.35;;;;;;;8.03;51.59;100619.12;1765468;81;21019;-54
2021/04/25 06:45:12;;;;;;;17.87;7.92;;;;;;;8.16;50.79;100616.05;1765477;81;21031;-54
2021/04/25 06:47:40;;;;;;;26.00;9.73;;;;;;;8.23;50.49;100618.58;1765481;81;22180;-54
2021/04/25 06:50:14;;;;;;;17.55;8.95;;;;;;;8.26;50.67;100613.44;1765316;81;21197;-56
2021/04/25 06:52:43;;;;;;;16.00;8.03;;;;;;;8.38;50.39;100612.48;1765410;81;21638;-54
2021/04/25 06:55:17;;;;;;;15.40;7.47;;;;;;;8.50;49.56;100603.63;1765508;81;20972;-54
2021/04/25 06:57:46;;;;;;;13.05;7.47;;;;;;;8.56;49.47;100609.98;1765404;81;21346;-54
2021/04/25 07:00:17;;;;;;;8.80;6.50;;;;;;;8.65;49.51;100609.28;1765446;81;21040;-54
2021/04/25 07:02:45;;;;;;;13.03;7.50;;;;;;;8.75;48.96;100617.34;1765475;81;21208;-54
2021/04/25 07:05:13;;;;;;;13.88;7.78;;;;;;;8.85;49.09;100624.30;1765287;81;21040;-53
2021/04/25 07:07:42;;;;;;;15.03;7.12;;;;;;;9.03;49.04;100631.88;1765340;81;21055;-54
2021/04/25 07:10:11;;;;;;;12.70;7.72;;;;;;;9.16;48.24;100633.67;1765442;81;21059;-54
2021/04/25 07:12:38;;;;;;;14.05;7.90;;;;;;;9.16;48.26;100637.78;1765489;81;21024;-53
2021/04/25 07:15:08;;;;;;;11.68;7.00;;;;;;;9.26;48.27;100634.32;1765579;81;21358;-53
2021/04/25 07:17:36;;;;;;;11.60;7.45;;;;;;;9.42;47.65;100636.66;1765416;81;21701;-53
2021/04/25 07:20:07;;;;;;;16.75;7.80;;;;;;;9.55;46.84;100642.25;1765452;81;21024;-53
2021/04/25 07:22:36;;;;;;;14.58;7.17;;;;;;;9.57;46.57;100645.55;1765509;81;21150;-53
2021/04/25 07:25:07;;;;;;;11.45;7.22;;;;;;;9.51;46.63;100633.70;1765560;81;21008;-54
2021/04/25 07:27:36;;;;;;;15.75;6.97;;;;;;;9.48;46.85;100630.67;1765529;79;22274;-53
2021/04/25 07:30:06;;;;;;;11.20;6.60;;;;;;;9.52;47.01;100638.66;1765573;81;21016;-53
2021/04/25 07:32:33;;;;;;;11.22;7.45;;;;;;;9.57;46.21;100631.02;1765401;81;20984;-54
2021/04/25 07:35:01;;;;;;;14.25;6.35;;;;;;;9.54;46.20;100632.92;1765371;81;21028;-54
2021/04/25 07:37:29;;;;;;;15.23;9.73;;;;;;;9.60;46.08;100631.34;1765362;81;20984;-53
2021/04/25 07:39:56;;;;;;;16.23;6.97;;;;;;;9.73;45.97;100622.36;1765579;81;21337;-53
2021/04/25 07:42:23;;;;;;;12.55;6.75;;;;;;;9.84;45.17;100632.32;1765376;81;21024;-53
2021/04/25 07:44:51;;;;;;;9.90;6.33;;;;;;;9.83;44.79;100637.52;1765390;81;21602;-54
2021/04/25 07:47:18;;;;;;;11.48;6.75;;;;;;;9.84;45.11;100629.58;1765555;81;21015;-53
2021/04/25 07:49:46;;;;;;;11.15;6.72;;;;;;;9.86;45.33;100627.41;1765564;81;21048;-53
2021/04/25 07:52:13;;;;;;;15.32;7.35;;;;;;;9.95;45.49;100627.75;1765527;81;21386;-53
2021/04/25 07:54:42;;;;;;;16.20;5.92;;;;;;;10.09;44.67;100633.57;1765334;81;21039;-53
2021/04/25 07:57:09;;;;;;;10.13;6.70;;;;;;;10.09;44.99;100634.95;1765526;81;21117;-53
2021/04/25 07:59:37;;;;;;;18.57;6.80;;;;;;;10.03;44.61;100629.97;1765377;81;21027;-54
2021/04/25 08:02:04;;;;;;;18.77;7.90;;;;;;;9.94;44.97;100635.69;1765718;81;20977;-53
2021/04/25 08:04:32;;;;;;;10.90;6.45;;;;;;;9.91;45.56;100630.17;1765398;81;21282;-53
2021/04/25 08:07:00;;;;;;;10.75;7.72;;;;;;;9.93;44.82;100625.27;1765626;81;21012;-53
2021/04/25 08:09:28;;;;;;;11.40;5.75;;;;;;;10.01;45.14;100626.13;1765650;81;21035;-54
2021/04/25 08:11:57;;;;;;;10.25;6.53;;;;;;;10.11;44.51;100624.55;1765519;81;21047;-53
2021/04/25 08:14:26;;;;;;;13.60;7.20;;;;;;;10.21;44.03;100610.88;1765598;81;21039;-54
2021/04/25 08:16:53;;;;;;;17.48;7.60;;;;;;;10.37;44.04;100610.42;1765493;81;21207;-53
2021/04/25 08:19:21;;;;;;;15.83;7.62;;;;;;;10.57;44.33;100604.20;1765666;81;21523;-54
2021/04/25 08:21:48;;;;;;;12.50;8.20;;;;;;;10.72;43.66;100601.50;1765592;81;21000;-54
2021/04/25 08:24:15;;;;;;;13.80;8.18;;;;;;;10.88;42.80;100602.92;1765495;81;22049;-53
2021/04/25 08:26:44;;;;;;;12.58;6.83;;;;;;;11.05;42.99;100600.75;1765504;79;21036;-53
2021/04/25 08:29:12;;;;;;;12.50;5.90;;;;;;;11.15;42.73;100601.89;1765452;81;21375;-54
2021/04/25 08:31:40;;;;;;;12.75;6.08;;;;;;;11.14;41.93;100591.42;1764789;81;20976;-53
2021/04/25 08:34:09;;;;;;;9.75;6.80;;;;;;;10.93;41.69;100605.70;1765420;81;21078;-53
2021/04/25 08:36:39;;;;;;;44.85;8.70;;;;;;;10.76;42.46;100596.84;1765441;81;21052;-53
2021/04/25 08:39:07;;;;;;;10.50;5.60;;;;;;;10.67;42.75;100591.89;1765566;81;21036;-54
2021/04/25 08:41:36;;;;;;;11.28;6.30;;;;;;;10.66;42.73;100595.73;1765450;81;22345;-53
2021/04/25 08:44:05;;;;;;;12.88;6.67;;;;;;;10.65;42.82;100593.25;1765495;81;20968;-53
2021/04/25 08:46:32;;;;;;;12.23;7.00;;;;;;;10.58;43.15;100593.49;1765512;81;21064;-54
2021/04/25 08:49:00;;;;;;;9.38;6.50;;;;;;;10.49;43.43;100592.38;1765568;81;21000;-53
2021/04/25 08:51:28;;;;;;;13.90;7.70;;;;;;;10.41;43.72;100593.70;1765542;81;21032;-53
2021/04/25 08:53:55;;;;;;;13.90;7.70;;;;;;;10.30;44.02;100589.23;1765445;81;22828;-54
2021/04/25 08:56:23;;;;;;;22.55;6.47;;;;;;;10.25;43.91;100590.03;1765346;81;21105;-53
2021/04/25 08:58:53;;;;;;;14.43;6.47;;;;;;;10.20;43.92;100596.86;1765577;81;20988;-54
2021/04/25 09:01:21;;;;;;;13.25;7.28;;;;;;;10.12;44.30;100595.45;1765618;81;21051;-61
2021/04/25 09:03:50;;;;;;;11.20;6.87;;;;;;;10.06;44.96;100588.30;1765450;81;21040;-53
2021/04/25 09:06:18;;;;;;;13.43;6.83;;;;;;;10.01;45.89;100585.52;1765548;81;21376;-53
2021/04/25 09:08:54;;;;;;;11.70;7.60;;;;;;;9.94;46.94;100581.62;1765383;81;21649;-53
2021/04/25 09:11:34;;;;;;;12.53;7.53;;;;;;;9.92;47.87;100589.87;1765653;81;21016;-53
2021/04/25 09:14:19;;;;;;;14.58;7.45;;;;;;;10.01;49.02;100586.89;1765480;81;21024;-53
2021/04/25 09:17:01;;;;;;;15.68;7.33;;;;;;;10.20;48.18;100590.00;1765204;81;21035;-53
2021/04/25 09:19:53;;;;;;;16.10;8.00;;;;;;;10.35;47.59;100596.16;1765486;81;21365;-53
2021/04/25 09:22:23;;;;;;;14.43;7.85;;;;;;;10.51;47.53;100593.73;1733725;82;21084;-53
2021/04/25 09:25:05;;;;;;;18.25;7.45;;;;;;;10.71;46.00;100589.41;1757535;81;21046;-53
2021/04/25 09:27:34;;;;;;;18.07;7.03;;;;;;;10.86;45.47;100574.88;1765422;79;21059;-53
2021/04/25 09:30:05;;;;;;;10.13;6.45;;;;;;;10.94;46.05;100577.09;1765515;81;20976;-53
2021/04/25 09:32:33;;;;;;;10.63;6.85;;;;;;;11.02;44.78;100567.51;1765478;81;21364;-53
2021/04/25 09:35:18;;;;;;;17.02;6.90;;;;;;;11.05;44.66;100571.08;1765308;81;21044;-53
2021/04/25 09:37:48;;;;;;;9.68;6.90;;;;;;;11.06;44.50;100577.67;1754320;81;21594;-53
2021/04/25 09:40:23;;;;;;;16.35;6.78;;;;;;;11.17;44.11;100564.75;1748727;81;21008;-55
2021/04/25 09:43:08;;;;;;;9.70;6.07;;;;;;;11.34;43.71;100571.92;1749167;81;21028;-54
2021/04/25 09:45:47;;;;;;;11.40;6.42;;;;;;;11.67;42.80;100570.52;1748772;81;21208;-54
2021/04/25 09:48:35;;;;;;;13.25;6.85;;;;;;;12.08;42.69;100566.89;1748894;82;21673;-54
2021/04/25 09:51:13;;;;;;;9.58;6.20;;;;;;;12.51;41.97;100571.96;1748944;82;21044;-55
2021/04/25 09:53:51;;;;;;;11.45;6.05;;;;;;;12.86;40.87;100564.59;1748854;82;21306;-54
2021/04/25 09:56:21;;;;;;;10.53;5.90;;;;;;;12.92;39.81;100568.98;1747815;82;21362;-53
2021/04/25 09:59:03;;;;;;;11.40;6.05;;;;;;;12.74;38.86;100565.76;1748882;82;21367;-53
2021/04/25 10:01:35;;;;;;;9.25;5.83;;;;;;;12.38;39.18;100553.55;1748790;82;21058;-54
2021/04/25 10:04:06;;;;;;;27.58;6.30;;;;;;;12.14;39.84;100557.50;1748636;82;21048;-54
2021/04/25 10:06:51;;;;;;;14.35;6.22;;;;;;;12.17;40.34;100545.11;1748710;82;21052;-54
2021/04/25 10:09:19;;;;;;;10.13;5.58;;;;;;;12.38;39.72;100539.78;1748697;82;20993;-53
2021/04/25 10:11:51;;;;;;;21.68;10.00;;;;;;;12.56;39.22;100541.08;1748757;81;21191;-53
2021/04/25 10:14:19;;;;;;;18.42;9.45;;;;;;;12.57;39.34;100557.05;1748577;82;21025;-53
2021/04/25 10:16:47;;;;;;;22.07;10.00;;;;;;;12.46;39.09;100535.63;1748616;82;21048;-54
2021/04/25 10:19:15;;;;;;;16.65;8.75;;;;;;;12.34;39.34;100548.33;1748878;82;21000;-54
2021/04/25 10:21:44;;;;;;;10.50;6.78;;;;;;;12.14;39.17;100547.05;1748745;82;21052;-53
2021/04/25 10:24:19;;;;;;;17.05;8.00;;;;;;;11.98;39.60;100548.47;1748821;82;21366;-54
2021/04/25 10:27:06;;;;;;;25.55;12.90;;;;;;;11.91;39.76;100541.03;1748645;80;21013;-54
2021/04/25 10:29:54;;;;;;;11.95;6.85;;;;;;;11.90;39.47;100542.13;1748810;82;21040;-54
2021/04/25 10:32:22;;;;;;;18.62;7.58;;;;;;;11.80;39.82;100538.03;1748738;82;21032;-54
2021/04/25 10:35:17;;;;;;;14.15;7.03;;;;;;;11.69;40.12;100540.81;1748748;82;21021;-54
2021/04/25 10:37:45;;;;;;;14.93;6.42;;;;;;;11.64;40.39;100542.74;1748817;81;21205;-54
2021/04/25 10:40:33;;;;;;;9.70;5.80;;;;;;;11.64;40.72;100549.06;1748717;82;21157;-54
2021/04/25 10:43:01;;;;;;;9.55;5.92;;;;;;;11.66;40.71;100541.37;1748387;82;21032;-55
2021/04/25 10:45:31;;;;;;;15.25;6.33;;;;;;;11.66;40.58;100533.12;1748726;81;21027;-55
2021/04/25 10:48:23;;;;;;;12.55;5.97;;;;;;;11.64;40.68;100531.73;1748643;82;21036;-55
2021/04/25 10:51:00;;;;;;;58.20;23.50;;;;;;;11.50;40.83;100533.70;1744500;82;21205;-54
2021/04/25 10:53:36;;;;;;;18.70;9.38;;;;;;;11.39;41.46;100528.74;1747651;82;21036;-55
2021/04/25 10:56:20;;;;;;;11.43;6.00;;;;;;;11.29;41.28;100537.00;1748731;82;21332;-54
2021/04/25 10:58:51;;;;;;;16.23;9.88;;;;;;;11.14;40.68;100539.75;1748643;82;21001;-54
2021/04/25 11:01:44;;;;;;;152.53;99.65;;;;;;;10.90;41.07;100532.02;1745124;82;21044;-53
2021/04/25 11:04:12;;;;;;;55.25;33.78;;;;;;;10.80;41.00;100535.60;1748761;82;21484;-54
2021/04/25 11:06:41;;;;;;;22.40;14.23;;;;;;;10.74;41.53;100530.36;1748601;81;21056;-54
2021/04/25 11:09:48;;;;;;;14.68;6.60;;;;;;;10.79;41.43;100545.47;1748848;81;20989;-53
2021/04/25 11:12:39;;;;;;;11.73;6.70;;;;;;;10.78;41.26;100530.91;1748951;82;21674;-54
2021/04/25 11:15:10;;;;;;;9.83;6.30;;;;;;;10.71;40.92;100536.66;1748602;81;20977;-54
2021/04/25 11:17:37;;;;;;;16.90;7.35;;;;;;;10.61;41.38;100545.44;1748873;82;21599;-54
2021/04/25 11:20:32;;;;;;;18.05;7.67;;;;;;;10.49;41.84;100548.44;1719563;82;21056;-54
2021/04/25 11:23:01;;;;;;;13.35;6.92;;;;;;;10.22;44.80;100552.14;1748314;82;22072;-54
2021/04/25 11:25:31;;;;;;;12.23;7.20;;;;;;;9.85;46.90;100551.12;1748796;82;21641;-54
2021/04/25 11:28:01;;;;;;;9.63;6.90;;;;;;;9.68;47.98;100550.47;1748813;80;21617;-54
2021/04/25 11:30:41;;;;;;;11.30;7.80;;;;;;;9.55;48.87;100558.61;1748777;82;22341;-54
2021/04/25 11:33:32;;;;;;;12.65;7.67;;;;;;;9.43;49.58;100546.47;1748666;82;47631;-54
2021/04/25 11:36:37;;;;;;;12.28;7.20;;;;;;;9.33;50.35;100543.62;1748551;82;21024;-54